Decoded Metar for KALI (ALICE in TX, USA) (IATA:ALI) | Meteo·Mobile Aviation Weather
aviador You're here:

KALI Decoded Metar

ALICE in TX, USA
Report Time2018-10-18 10:53:00
UTC Time2018-10-18 11:16:56
Flight Rules ifr IFR
Wind360° at 13 kt
W.Decomp.*RWY 35: 13.0 kt HW 0.9 kt RCW
RWY 31: 9.4 kt HW 9.0 kt RCW
Visibility9999 m
Phenomena:N/A
Clouds:Overcast 005 Hf
Expected CloudBase > 400 ft AGL from Temp-Dew spread
Ceiling500 ft
Temp13°C (ISA -2)
Dew Point12°C (94% RH)
AAT9.0°C
QNH1023 hPa
Density Alt-171 ft
Elevation174 ft
Report Wrong Elevation
Raw Report
KALI 181053Z AUTO 36013KT 9SM OVC005 13/12 A3021 RMK AO2 SLP229
T01330122 $=

Extra information for KALI:More info

Metar Taf Metar & Taf Last 4 Metars F.Rules Stats Wind Profile Meteogram Temp Stats Airport Information Weather charts Add Link Nearby VenuesMetar ALERT Operation Metar Decoded Social comments

AIRNAV info for KALI